CheckWX is a tool to help pilots better visualize weather data.  It is not intended as a substitute for an official pre-flight weather briefing.

00:41:56 UTC

CYMT METAR
Chapais Airport
Chibougamau, Canada
Current

42 mins ago

CYMT 270000Z AUTO 22003KT 9SM CLR M08/M21 A3016 RMK SLP250
Observed
Mar-27 @ 00:00 UTC
Wind
  • 220° at 3 KTS
Visibility
9 SM
Flight Rules
VFR
Cloud Levels
  • Clear skies
Temperature
-8°C / 18°F
Dewpoint
-21°C / -6°F
Humidity
35%
Altimeter
30.16" Hg
Pressure
1025 hPa
Previous

2 hours ago

CYMT 262300Z AUTO 27006G15KT 9SM CLR M05/M21 A3015 RMK SLP246
Observed
Mar-26 @ 23:00 UTC
Wind
  • 270° at 6 KTS
  • Gusting to 15 KTS
Visibility
9 SM
Flight Rules
VFR
Cloud Levels
  • Clear skies
Temperature
-5°C / 23°F
Dewpoint
-21°C / -6°F
Humidity
28%
Altimeter
30.15" Hg
Pressure
1024.6 hPa
Previous

3 hours ago

CYMT 262200Z AUTO 29011G20KT 9SM CLR M04/M21 A3013 RMK SLP240
Observed
Mar-26 @ 22:00 UTC
Wind
  • 290° at 11 KTS
  • Gusting to 20 KTS
Visibility
9 SM
Flight Rules
VFR
Cloud Levels
  • Clear skies
Temperature
-4°C / 25°F
Dewpoint
-21°C / -6°F
Humidity
26%
Altimeter
30.13" Hg
Pressure
1024 hPa